createdAt,value
2023-02-06T00:01:31.186Z,47.54
2023-02-06T00:03:57.925Z,47.73
2023-02-06T00:06:24.766Z,47.22
2023-02-06T00:08:51.825Z,46.90
2023-02-06T00:11:19.117Z,47.35
2023-02-06T00:13:46.157Z,47.17
2023-02-06T00:16:25.467Z,47.12
2023-02-06T00:18:53.350Z,46.79
2023-02-06T00:21:22.112Z,46.73
2023-02-06T00:23:49.266Z,46.60
2023-02-06T00:26:16.314Z,46.95
2023-02-06T00:28:43.430Z,47.34
2023-02-06T00:31:11.037Z,46.57
2023-02-06T00:33:39.647Z,47.54
2023-02-06T00:36:06.984Z,48.79
2023-02-06T00:38:34.102Z,47.84
2023-02-06T00:41:00.930Z,47.91
2023-02-06T00:43:29.675Z,48.08
2023-02-06T00:45:57.680Z,48.07
2023-02-06T00:48:25.492Z,47.71
2023-02-06T00:50:53.780Z,47.51
2023-02-06T00:53:21.558Z,47.32
2023-02-06T00:55:48.289Z,47.97
2023-02-06T00:58:15.234Z,47.44
2023-02-06T01:00:43.472Z,47.88
2023-02-06T01:03:10.792Z,47.33
2023-02-06T01:05:37.805Z,46.92
2023-02-06T01:08:04.881Z,46.47
2023-02-06T01:10:32.457Z,46.80
2023-02-06T01:13:00.734Z,46.05
2023-02-06T01:15:27.989Z,46.15
2023-02-06T01:17:54.945Z,45.91
2023-02-06T01:20:23.080Z,46.93
2023-02-06T01:22:50.676Z,46.43
2023-02-06T01:25:17.526Z,45.90
2023-02-06T01:27:44.566Z,45.52
2023-02-06T01:30:11.916Z,44.88
2023-02-06T01:32:40.078Z,45.12
2023-02-06T01:35:08.856Z,44.78
2023-02-06T01:37:36.788Z,44.66
2023-02-06T01:40:05.751Z,44.67
2023-02-06T01:42:37.652Z,44.07
2023-02-06T01:45:17.035Z,44.30
2023-02-06T01:47:43.882Z,43.86
2023-02-06T01:50:11.622Z,44.12
2023-02-06T01:52:38.579Z,43.87
2023-02-06T01:55:06.740Z,44.32
2023-02-06T01:57:34.906Z,44.24
2023-02-06T02:00:07.089Z,43.74
2023-02-06T02:02:43.687Z,43.62
2023-02-06T02:05:12.482Z,43.75
2023-02-06T02:07:48.098Z,43.38
2023-02-06T02:10:15.360Z,43.40
2023-02-06T02:12:42.041Z,42.82
2023-02-06T02:15:09.310Z,43.23
2023-02-06T02:17:55.605Z,42.99
2023-02-06T02:20:37.102Z,42.50
2023-02-06T02:23:08.198Z,42.06
2023-02-06T02:25:50.585Z,41.96
2023-02-06T02:28:29.680Z,42.40
2023-02-06T02:31:08.382Z,42.28
2023-02-06T02:34:01.102Z,41.88
2023-02-06T02:36:37.509Z,42.51
2023-02-06T02:39:40.373Z,41.24
2023-02-06T02:42:27.693Z,41.74
2023-02-06T02:45:12.908Z,41.73
2023-02-06T02:47:47.636Z,41.31
2023-02-06T02:50:16.856Z,40.63
2023-02-06T02:52:44.991Z,40.28
2023-02-06T02:55:22.455Z,39.93
2023-02-06T02:57:59.780Z,40.28
2023-02-06T03:00:27.438Z,40.32
2023-02-06T03:02:57.493Z,40.55
2023-02-06T03:05:26.179Z,40.01
2023-02-06T03:08:10.988Z,40.35
2023-02-06T03:10:47.525Z,39.27
2023-02-06T03:13:32.042Z,39.75
2023-02-06T03:16:18.108Z,39.91
2023-02-06T03:18:56.494Z,39.52
2023-02-06T03:21:25.209Z,39.76
2023-02-06T03:23:57.909Z,39.46
2023-02-06T03:26:27.621Z,38.34
2023-02-06T03:29:00.337Z,39.17
2023-02-06T03:31:40.002Z,39.27
2023-02-06T03:34:15.713Z,39.49
2023-02-06T03:36:43.866Z,38.48
2023-02-06T03:39:11.403Z,38.10
2023-02-06T03:41:40.600Z,38.15
2023-02-06T03:44:12.153Z,38.56
2023-02-06T03:46:41.856Z,38.06
2023-02-06T03:49:12.932Z,38.08
2023-02-06T03:51:53.076Z,37.71
2023-02-06T03:54:22.842Z,37.80
2023-02-06T03:56:55.162Z,37.82
2023-02-06T03:59:23.484Z,37.94
2023-02-06T04:01:57.355Z,38.41
2023-02-06T04:04:29.535Z,38.84
2023-02-06T04:07:07.312Z,38.65
2023-02-06T04:09:34.164Z,38.64
2023-02-06T04:12:00.862Z,38.91
2023-02-06T04:14:27.677Z,39.69
2023-02-06T04:16:54.538Z,39.94
2023-02-06T04:19:21.305Z,39.30
2023-02-06T04:21:48.243Z,39.44
2023-02-06T04:24:15.211Z,39.21
2023-02-06T04:26:41.886Z,39.46
2023-02-06T04:29:08.802Z,39.63
2023-02-06T04:31:35.606Z,39.01
2023-02-06T04:34:02.436Z,38.72
2023-02-06T04:36:29.193Z,39.18
2023-02-06T04:38:56.143Z,39.99
2023-02-06T04:41:22.855Z,39.72
2023-02-06T04:43:49.571Z,39.82
2023-02-06T04:46:16.433Z,39.76
2023-02-06T04:48:43.200Z,39.55
2023-02-06T04:51:10.145Z,39.55
2023-02-06T04:53:36.923Z,39.64
2023-02-06T04:56:08.975Z,39.42
2023-02-06T04:58:38.563Z,39.55
2023-02-06T05:01:05.908Z,40.00
2023-02-06T05:03:33.253Z,39.78
2023-02-06T05:06:02.240Z,39.57
2023-02-06T05:08:29.682Z,39.99
2023-02-06T05:10:57.226Z,39.92
2023-02-06T05:13:24.044Z,39.77
2023-02-06T05:15:51.649Z,39.72
2023-02-06T05:18:18.667Z,39.46
2023-02-06T05:20:46.265Z,40.00
2023-02-06T05:23:12.984Z,39.90
2023-02-06T05:25:42.119Z,39.63
2023-02-06T05:28:09.209Z,39.78
2023-02-06T05:30:36.534Z,39.97
2023-02-06T05:33:04.443Z,39.62
2023-02-06T05:35:31.182Z,39.91
2023-02-06T05:37:58.276Z,39.47
2023-02-06T05:40:25.139Z,39.39
2023-02-06T05:42:51.976Z,39.65
2023-02-06T05:45:18.843Z,39.36
2023-02-06T05:47:46.094Z,39.52
2023-02-06T05:50:12.803Z,39.51
2023-02-06T05:52:39.620Z,39.11
2023-02-06T05:55:07.229Z,40.58
2023-02-06T05:57:34.699Z,41.95
2023-02-06T06:00:01.489Z,39.41
2023-02-06T06:02:38.504Z,38.74
2023-02-06T06:05:06.102Z,38.68
2023-02-06T06:07:32.915Z,38.90
2023-02-06T06:09:59.799Z,38.86
2023-02-06T06:12:26.556Z,38.80
2023-02-06T06:14:53.562Z,38.75
2023-02-06T06:17:20.858Z,38.87
2023-02-06T06:19:47.579Z,38.19
2023-02-06T06:22:14.341Z,38.75
2023-02-06T06:24:42.226Z,38.22
2023-02-06T06:27:10.776Z,37.76
2023-02-06T06:29:37.683Z,38.03
2023-02-06T06:32:05.346Z,37.81
2023-02-06T06:34:32.120Z,37.67
2023-02-06T06:36:59.045Z,37.73
2023-02-06T06:39:25.893Z,37.98
2023-02-06T06:41:52.670Z,38.01
2023-02-06T06:44:19.409Z,37.87
2023-02-06T06:46:46.333Z,37.31
2023-02-06T06:49:13.123Z,36.95
2023-02-06T06:51:39.870Z,36.90
2023-02-06T06:54:06.637Z,36.67
2023-02-06T06:56:33.587Z,36.89
2023-02-06T06:59:00.286Z,36.25
2023-02-06T07:01:27.204Z,36.31
2023-02-06T07:03:54.004Z,36.46
2023-02-06T07:06:20.944Z,37.10
2023-02-06T07:08:47.643Z,36.90
2023-02-06T07:11:15.515Z,36.29
2023-02-06T07:13:43.032Z,36.39
2023-02-06T07:16:10.617Z,36.43
2023-02-06T07:18:39.839Z,36.35
2023-02-06T07:21:08.718Z,36.62
2023-02-06T07:23:38.647Z,37.09
2023-02-06T07:26:05.781Z,36.89
2023-02-06T07:28:33.315Z,36.77
2023-02-06T07:31:01.565Z,36.64
2023-02-06T07:33:28.733Z,36.95
2023-02-06T07:35:55.480Z,36.76
2023-02-06T07:38:22.536Z,36.11
2023-02-06T07:40:49.348Z,36.41
2023-02-06T07:43:16.538Z,36.49
2023-02-06T07:45:43.422Z,36.58
2023-02-06T07:48:10.446Z,36.21
2023-02-06T07:50:37.530Z,36.92
2023-02-06T07:53:04.407Z,36.50
2023-02-06T07:55:31.158Z,36.80
2023-02-06T07:57:58.072Z,37.12
2023-02-06T08:00:24.849Z,36.69
2023-02-06T08:02:51.703Z,36.62
2023-02-06T08:05:18.600Z,36.62
2023-02-06T08:07:45.551Z,36.01
2023-02-06T08:10:12.349Z,36.33
2023-02-06T08:12:39.146Z,35.93
2023-02-06T08:15:06.309Z,35.54
2023-02-06T08:17:33.113Z,35.95
2023-02-06T08:20:00.247Z,35.18
2023-02-06T08:22:28.936Z,35.40
2023-02-06T08:24:55.679Z,34.71
2023-02-06T08:27:22.412Z,34.94
2023-02-06T08:29:49.290Z,34.26
2023-02-06T08:32:15.908Z,34.28
2023-02-06T08:34:42.673Z,34.31
2023-02-06T08:37:09.422Z,33.51
2023-02-06T08:39:36.511Z,33.21
2023-02-06T08:42:03.236Z,33.88
2023-02-06T08:44:30.260Z,34.34
2023-02-06T08:47:09.169Z,33.70
2023-02-06T08:49:36.852Z,34.12
2023-02-06T08:52:03.700Z,33.17
2023-02-06T08:54:31.135Z,33.47
2023-02-06T08:57:01.133Z,33.17
2023-02-06T08:59:32.233Z,33.30
2023-02-06T09:01:59.200Z,33.81
2023-02-06T09:04:31.634Z,33.64
2023-02-06T09:06:58.646Z,33.86
2023-02-06T09:09:25.368Z,33.78
2023-02-06T09:11:53.387Z,33.90
2023-02-06T09:14:20.614Z,33.72
2023-02-06T09:16:47.642Z,33.31
2023-02-06T09:19:14.789Z,32.92
2023-02-06T09:21:41.740Z,32.22
2023-02-06T09:24:09.634Z,32.70
2023-02-06T09:26:53.402Z,33.17
2023-02-06T09:29:24.226Z,33.06
2023-02-06T09:31:50.987Z,33.35
2023-02-06T09:34:17.855Z,33.68
2023-02-06T09:36:44.842Z,34.13
2023-02-06T09:39:11.750Z,34.68
2023-02-06T09:41:49.182Z,34.78
2023-02-06T09:44:32.001Z,32.16
2023-02-06T09:47:17.613Z,30.62
2023-02-06T09:49:54.823Z,32.35
2023-02-06T09:52:51.481Z,32.73
2023-02-06T09:55:44.415Z,32.05
2023-02-06T09:58:32.872Z,32.30
2023-02-06T10:01:13.128Z,32.48
2023-02-06T10:03:52.098Z,32.76
2023-02-06T10:06:43.628Z,32.73
2023-02-06T10:09:43.115Z,32.31
2023-02-06T10:12:20.093Z,32.17
2023-02-06T10:15:13.922Z,31.45
2023-02-06T10:17:57.379Z,32.29
2023-02-06T10:20:36.590Z,31.46
2023-02-06T10:23:09.817Z,31.93
2023-02-06T10:25:42.285Z,32.44
2023-02-06T10:28:30.689Z,32.15
2023-02-06T10:31:21.553Z,31.96
2023-02-06T10:34:10.297Z,31.14
2023-02-06T10:36:50.604Z,31.02
2023-02-06T10:39:50.706Z,32.05
2023-02-06T10:42:45.573Z,32.77
2023-02-06T10:45:20.098Z,32.94
2023-02-06T10:48:04.486Z,32.32
2023-02-06T10:50:42.296Z,33.14
2023-02-06T10:53:18.021Z,31.52
2023-02-06T10:55:56.198Z,31.16
2023-02-06T10:58:31.191Z,31.26
2023-02-06T11:01:00.189Z,31.94
2023-02-06T11:03:32.002Z,31.63
2023-02-06T11:06:01.697Z,31.40
2023-02-06T11:08:30.607Z,31.13
2023-02-06T11:10:57.851Z,31.25
2023-02-06T11:13:36.781Z,31.68
2023-02-06T11:16:08.970Z,31.21
2023-02-06T11:18:39.201Z,30.77
2023-02-06T11:21:08.600Z,31.03
2023-02-06T11:23:36.632Z,31.46
2023-02-06T11:26:06.072Z,31.03
2023-02-06T11:28:35.549Z,30.98
2023-02-06T11:31:06.191Z,30.62
2023-02-06T11:33:39.541Z,30.18
2023-02-06T11:36:20.183Z,30.00
2023-02-06T11:38:59.708Z,30.57
2023-02-06T11:41:27.342Z,29.94
2023-02-06T11:44:06.715Z,30.18
2023-02-06T11:46:36.110Z,30.35
2023-02-06T11:49:05.229Z,30.20
2023-02-06T11:51:51.518Z,30.13
2023-02-06T11:54:22.742Z,29.97
2023-02-06T11:57:04.920Z,30.21
2023-02-06T11:59:34.615Z,29.62
2023-02-06T12:02:05.782Z,30.07
2023-02-06T12:04:40.744Z,29.88
2023-02-06T12:07:31.370Z,29.22
2023-02-06T12:09:58.265Z,29.20
2023-02-06T12:12:30.640Z,29.01
2023-02-06T12:15:29.528Z,27.81
2023-02-06T12:18:06.103Z,26.83
2023-02-06T12:20:36.813Z,27.07
2023-02-06T12:23:11.188Z,27.12
2023-02-06T12:25:44.309Z,26.00
2023-02-06T12:28:38.002Z,25.91
2023-02-06T12:31:13.024Z,24.91
2023-02-06T12:33:48.823Z,23.51
2023-02-06T12:36:28.068Z,23.23
2023-02-06T12:39:14.487Z,22.67
2023-02-06T12:42:00.377Z,22.82
2023-02-06T12:44:45.672Z,22.72
2023-02-06T12:47:15.526Z,24.43
2023-02-06T12:50:12.906Z,24.97
2023-02-06T12:52:45.080Z,23.95
2023-02-06T12:55:30.537Z,23.86
2023-02-06T12:57:58.464Z,24.99
2023-02-06T13:00:59.964Z,26.72
2023-02-06T13:03:43.739Z,27.55
2023-02-06T13:06:22.605Z,27.79
2023-02-06T13:08:56.158Z,25.07
2023-02-06T13:11:28.885Z,24.70
2023-02-06T13:14:06.893Z,24.85
2023-02-06T13:16:58.261Z,24.64
2023-02-06T13:19:25.092Z,24.39
2023-02-06T13:22:13.632Z,25.25
2023-02-06T13:24:42.587Z,26.07
2023-02-06T13:27:09.233Z,27.08
2023-02-06T13:29:47.731Z,28.30
2023-02-06T13:32:21.777Z,28.20
2023-02-06T13:35:00.439Z,27.99
2023-02-06T13:37:37.266Z,26.54
2023-02-06T13:40:26.652Z,27.36
2023-02-06T13:43:05.366Z,27.29
2023-02-06T13:46:01.934Z,25.49
2023-02-06T13:48:58.346Z,23.82
2023-02-06T13:51:46.889Z,23.16
2023-02-06T13:54:51.372Z,23.40
2023-02-06T13:57:31.723Z,22.60
2023-02-06T14:00:10.783Z,22.39
2023-02-06T14:02:40.795Z,24.79
2023-02-06T14:05:16.529Z,26.34
2023-02-06T14:08:38.020Z,26.96
2023-02-06T14:11:14.550Z,28.53
2023-02-06T14:14:01.068Z,29.19
2023-02-06T14:16:50.489Z,29.86
2023-02-06T14:19:41.841Z,30.16
2023-02-06T14:22:29.066Z,30.20
2023-02-06T14:25:17.672Z,30.58
2023-02-06T14:28:09.053Z,30.44
2023-02-06T14:30:46.258Z,30.58
2023-02-06T14:33:40.909Z,30.04
2023-02-06T14:36:36.842Z,30.41
2023-02-06T14:39:48.008Z,30.75
2023-02-06T14:42:20.725Z,31.23
2023-02-06T14:45:06.963Z,30.79
2023-02-06T14:47:42.243Z,31.49
2023-02-06T14:50:21.772Z,31.65
2023-02-06T14:52:53.027Z,32.04
2023-02-06T14:55:34.294Z,31.81
2023-02-06T14:58:01.594Z,31.84
2023-02-06T15:00:29.020Z,31.87
2023-02-06T15:03:04.647Z,31.98
2023-02-06T15:05:32.004Z,32.79
2023-02-06T15:08:02.043Z,32.11
2023-02-06T15:10:37.092Z,32.77
2023-02-06T15:13:04.646Z,32.51
2023-02-06T15:15:33.871Z,32.97
2023-02-06T15:18:06.513Z,32.91
2023-02-06T15:20:37.555Z,33.00
2023-02-06T15:23:16.937Z,33.13
2023-02-06T15:25:57.008Z,33.13
2023-02-06T15:28:28.938Z,32.92
2023-02-06T15:30:57.620Z,33.47
2023-02-06T15:33:28.293Z,33.54
2023-02-06T15:35:57.401Z,34.83
2023-02-06T15:38:27.207Z,36.07
2023-02-06T15:40:58.497Z,34.76
2023-02-06T15:43:27.138Z,34.80
2023-02-06T15:45:57.049Z,34.78
2023-02-06T15:48:45.042Z,34.23
2023-02-06T15:51:20.769Z,34.30
2023-02-06T15:53:50.699Z,34.69
2023-02-06T15:56:30.474Z,34.80
2023-02-06T15:59:03.724Z,34.60
2023-02-06T16:01:35.007Z,34.78
2023-02-06T16:04:08.796Z,34.75
2023-02-06T16:06:36.311Z,34.78
2023-02-06T16:09:07.282Z,34.98
2023-02-06T16:11:47.539Z,34.74
2023-02-06T16:14:37.255Z,35.03
2023-02-06T16:17:22.300Z,34.99
2023-02-06T16:19:59.146Z,35.10
2023-02-06T16:22:33.313Z,34.79
2023-02-06T16:25:23.221Z,34.55
2023-02-06T16:27:55.913Z,34.37
2023-02-06T16:30:37.316Z,34.34
2023-02-06T16:33:25.926Z,34.74
2023-02-06T16:35:52.845Z,34.52
2023-02-06T16:38:20.541Z,34.80
2023-02-06T16:40:50.467Z,34.43
2023-02-06T16:43:17.289Z,34.64
2023-02-06T16:45:44.113Z,33.99
2023-02-06T16:48:17.317Z,34.10
2023-02-06T16:50:46.857Z,33.72
2023-02-06T16:53:25.687Z,34.28
2023-02-06T16:55:52.700Z,37.84
2023-02-06T16:58:22.788Z,34.36
2023-02-06T17:00:49.678Z,34.16
2023-02-06T17:03:17.796Z,33.77
2023-02-06T17:05:46.662Z,34.25
2023-02-06T17:08:24.651Z,33.54
2023-02-06T17:10:52.232Z,33.86
2023-02-06T17:13:22.199Z,34.03
2023-02-06T17:15:52.197Z,34.10
2023-02-06T17:18:20.536Z,34.15
2023-02-06T17:20:51.616Z,33.99
2023-02-06T17:23:19.211Z,34.14
2023-02-06T17:25:47.345Z,34.35
2023-02-06T17:28:21.350Z,34.48
2023-02-06T17:30:50.906Z,34.35
2023-02-06T17:33:18.065Z,34.43
2023-02-06T17:35:46.503Z,34.62
2023-02-06T17:38:13.365Z,34.54
2023-02-06T17:40:41.325Z,34.24
2023-02-06T17:43:09.738Z,34.42
2023-02-06T17:45:39.243Z,34.31
2023-02-06T17:48:06.562Z,33.95
2023-02-06T17:50:36.121Z,34.48
2023-02-06T17:53:07.135Z,33.73
2023-02-06T17:55:35.312Z,34.54
2023-02-06T17:58:02.776Z,34.25
2023-02-06T18:00:30.135Z,34.10
2023-02-06T18:02:59.303Z,34.64
2023-02-06T18:05:26.903Z,34.92
2023-02-06T18:07:53.969Z,34.24
2023-02-06T18:10:22.654Z,34.12
2023-02-06T18:12:50.028Z,34.84
2023-02-06T18:15:17.602Z,34.63
2023-02-06T18:17:44.564Z,34.31
2023-02-06T18:20:12.656Z,34.28
2023-02-06T18:22:42.438Z,34.49
2023-02-06T18:25:12.132Z,34.80
2023-02-06T18:27:40.199Z,33.91
2023-02-06T18:30:08.138Z,34.35
2023-02-06T18:32:37.572Z,33.63
2023-02-06T18:35:05.212Z,33.78
2023-02-06T18:37:32.066Z,33.73
2023-02-06T18:39:58.931Z,33.69
2023-02-06T18:42:44.341Z,33.64
2023-02-06T18:45:11.132Z,33.78
2023-02-06T18:47:39.130Z,33.37
2023-02-06T18:50:06.136Z,33.99
2023-02-06T18:52:32.945Z,34.12
2023-02-06T18:55:00.003Z,34.12
2023-02-06T18:57:26.694Z,33.59
2023-02-06T18:59:53.509Z,33.57
2023-02-06T19:02:20.484Z,33.56
2023-02-06T19:04:47.204Z,33.71
2023-02-06T19:07:15.433Z,33.56
2023-02-06T19:09:42.824Z,33.80
2023-02-06T19:12:09.697Z,33.59
2023-02-06T19:14:36.593Z,33.88
2023-02-06T19:17:03.472Z,33.58
2023-02-06T19:19:30.516Z,33.40
2023-02-06T19:21:57.829Z,33.40
2023-02-06T19:24:26.288Z,33.33
2023-02-06T19:26:53.085Z,33.12
2023-02-06T19:29:34.355Z,33.87
2023-02-06T19:32:03.622Z,33.73
2023-02-06T19:34:30.532Z,32.89
2023-02-06T19:36:57.447Z,32.64
2023-02-06T19:39:24.749Z,32.96
2023-02-06T19:41:51.635Z,32.91
2023-02-06T19:44:18.448Z,32.64
2023-02-06T19:46:45.477Z,32.77
2023-02-06T19:49:12.529Z,32.80
2023-02-06T19:51:41.607Z,32.98
2023-02-06T19:54:08.645Z,32.67
2023-02-06T19:56:39.580Z,32.82
2023-02-06T19:59:17.921Z,31.98
2023-02-06T20:02:14.525Z,32.18
2023-02-06T20:04:41.594Z,33.17
2023-02-06T20:07:08.452Z,33.08
2023-02-06T20:09:36.574Z,32.70
2023-02-06T20:12:03.707Z,32.59
2023-02-06T20:14:30.523Z,31.75
2023-02-06T20:16:57.509Z,32.93
2023-02-06T20:19:26.985Z,32.91
2023-02-06T20:21:58.052Z,32.86
2023-02-06T20:24:27.946Z,33.30
2023-02-06T20:26:57.787Z,33.17
2023-02-06T20:29:29.163Z,33.21
2023-02-06T20:31:57.002Z,33.06
2023-02-06T20:34:24.895Z,32.78
2023-02-06T20:36:51.974Z,32.96
2023-02-06T20:39:19.646Z,33.26
2023-02-06T20:41:49.434Z,33.19
2023-02-06T20:44:17.346Z,33.54
2023-02-06T20:46:44.482Z,33.41
2023-02-06T20:49:23.163Z,33.30
2023-02-06T20:51:51.136Z,33.48
2023-02-06T20:54:19.583Z,33.67
2023-02-06T20:56:46.994Z,33.41
2023-02-06T20:59:16.013Z,33.53
2023-02-06T21:01:43.240Z,33.84
2023-02-06T21:04:12.616Z,33.55
2023-02-06T21:06:39.862Z,33.89
2023-02-06T21:09:08.394Z,34.24
2023-02-06T21:11:39.238Z,34.00
2023-02-06T21:14:06.698Z,34.53
2023-02-06T21:16:35.744Z,34.53
2023-02-06T21:19:04.725Z,34.73
2023-02-06T21:21:31.731Z,34.43
2023-02-06T21:23:58.894Z,34.04
2023-02-06T21:26:27.395Z,34.04
2023-02-06T21:28:55.018Z,34.03
2023-02-06T21:31:25.139Z,34.44
2023-02-06T21:33:52.484Z,34.40
2023-02-06T21:36:21.154Z,34.96
2023-02-06T21:38:48.205Z,34.81
2023-02-06T21:41:18.225Z,34.89
2023-02-06T21:43:45.827Z,35.12
2023-02-06T21:46:13.268Z,34.70
2023-02-06T21:48:41.360Z,34.86
2023-02-06T21:51:13.445Z,34.71
2023-02-06T21:53:40.569Z,35.11
2023-02-06T21:56:09.878Z,35.17
2023-02-06T21:58:37.050Z,35.04
2023-02-06T22:01:08.840Z,34.94
2023-02-06T22:03:36.056Z,35.97
2023-02-06T22:06:09.350Z,35.58
2023-02-06T22:08:36.867Z,35.93
2023-02-06T22:11:24.201Z,35.75
2023-02-06T22:13:51.858Z,35.25
2023-02-06T22:16:21.754Z,35.56
2023-02-06T22:18:49.398Z,35.84
2023-02-06T22:21:19.160Z,36.19
2023-02-06T22:23:47.499Z,35.64
2023-02-06T22:26:15.976Z,36.07
2023-02-06T22:28:43.903Z,36.10
2023-02-06T22:31:14.278Z,36.52
2023-02-06T22:33:41.631Z,36.47
2023-02-06T22:36:11.788Z,35.89
2023-02-06T22:38:39.545Z,35.95
2023-02-06T22:41:10.691Z,35.64
2023-02-06T22:43:38.822Z,36.10
2023-02-06T22:46:07.011Z,36.29
2023-02-06T22:48:34.134Z,35.52
2023-02-06T22:51:09.015Z,35.57
2023-02-06T22:53:38.468Z,36.03
2023-02-06T22:56:27.123Z,35.89
2023-02-06T22:59:01.772Z,35.76
2023-02-06T23:01:59.494Z,35.89
2023-02-06T23:04:30.241Z,35.75
2023-02-06T23:06:57.639Z,35.75
2023-02-06T23:09:26.931Z,35.69
2023-02-06T23:11:54.928Z,36.15
2023-02-06T23:14:21.822Z,35.99
2023-02-06T23:16:49.045Z,36.32
2023-02-06T23:19:17.009Z,36.39
2023-02-06T23:21:45.703Z,36.18
2023-02-06T23:24:13.278Z,36.27
2023-02-06T23:26:45.218Z,37.15
2023-02-06T23:29:17.803Z,36.68
2023-02-06T23:31:45.981Z,36.26
2023-02-06T23:34:13.820Z,36.34
2023-02-06T23:36:41.024Z,36.66
2023-02-06T23:39:07.750Z,36.65
2023-02-06T23:41:35.007Z,36.38
2023-02-06T23:44:04.632Z,36.49
2023-02-06T23:46:34.538Z,36.53
2023-02-06T23:49:01.292Z,36.03
2023-02-06T23:51:28.360Z,36.57
2023-02-06T23:53:55.127Z,36.91
2023-02-06T23:56:32.270Z,36.92
2023-02-06T23:59:00.631Z,37.16
